Hlavní strana
METAR-TAF:

METAR-TAF

Letiště :

Statesboro-Bulloch County Airport

Statesboro, Georgie, Spojené státy americké

zeměpisná šířka: 32-28-59N, zeměpisná délka: 081-44-14W, výška: 57 m

Aktuální stav počasí

Zpráva byla vytvořena před 29 minutami, v 11:35 UTC
Západní vítr 3 kt
Teplota 21°C
Vlhkost vzduchu 88%
Tlak 1022 hPa
Viditelnost: 16.1 km
Jasno

METAR: KTBR 241135Z AUTO 26003KT 10SM CLR 21/19 A3019 RMK AO2 T02120189

Čas: 08:04 (12:04 UTC)


TAF: chybějící

Stav a předpovědi počasí z více než 4 000 letišť (zprávy METAR a TAF).

Červené a žluté tečky na mapě představují dostupné meteorologické stanice.

Když kurzor umístíte na tečku, zobrazí se název stanice.

Pak kliknutím zobrazíte stav a předpověď počasí.

Chcete-li změnit mapu, kliknutím na zelené tlačítko se znaménkem +mapu přiblížíte, kliknutím na zelené tlačítko se znaménkem – mapu oddálíte a kliknutím na zelené šipky přejdete na sousední mapy.


METAR-TAF: